Time;durP1;ratioP1;P1;durP2;ratioP2;P2;SDS_P1;SDS_P2;PMS_P1;PMS_P2;Temp;Humidity;BMP_temperature;BMP_pressure;BME280_temperature;BME280_humidity;BME280_pressure;Samples;Min_cycle;Max_cycle;Signal;HPM_P1;HPM_P2
2023/09/09 00:01:08;;;;;;;9.23;7.80;;;;;;;19.53;51.65;94271.84;4997937;28;20520;-79
2023/09/09 00:03:34;;;;;;;9.45;8.27;;;;;;;19.52;51.83;94270.28;5013325;28;20037;-77
2023/09/09 00:06:11;;;;;;;10.80;8.25;;;;;;;19.45;51.67;94269.38;5015222;28;20038;-78
2023/09/09 00:08:37;;;;;;;10.05;7.88;;;;;;;19.44;52.16;94273.19;5013877;28;20065;-78
2023/09/09 00:11:02;;;;;;;10.90;8.50;;;;;;;19.37;51.96;94263.03;4991492;28;20049;-76
2023/09/09 00:13:28;;;;;;;10.98;8.88;;;;;;;19.39;52.18;94276.94;5012008;28;20446;-79
2023/09/09 00:15:54;;;;;;;16.25;8.05;;;;;;;19.43;52.21;94283.19;4992521;28;20053;-77
2023/09/09 00:18:20;;;;;;;9.65;6.50;;;;;;;19.32;52.35;94274.09;5013919;28;20543;-79
2023/09/09 00:20:45;;;;;;;10.13;6.82;;;;;;;19.26;52.43;94272.84;5016495;28;20090;-77
2023/09/09 00:23:11;;;;;;;9.77;6.20;;;;;;;19.39;52.48;94289.66;5019742;28;20025;-78
2023/09/09 00:25:38;;;;;;;8.13;6.30;;;;;;;19.32;52.56;94284.91;5018004;28;20042;-77
2023/09/09 00:28:05;;;;;;;9.10;6.35;;;;;;;19.39;52.40;94286.97;5019974;28;20691;-77
2023/09/09 00:30:30;;;;;;;12.00;6.25;;;;;;;19.25;52.86;94272.06;5012410;28;22024;-78
2023/09/09 00:32:57;;;;;;;7.88;5.75;;;;;;;19.17;52.98;94272.28;5020928;28;20424;-77
2023/09/09 00:35:22;;;;;;;7.00;5.95;;;;;;;19.11;53.27;94265.63;4998466;28;20025;-78
2023/09/09 00:37:47;;;;;;;6.63;6.00;;;;;;;19.13;53.41;94274.91;4996646;28;20029;-78
2023/09/09 00:40:13;;;;;;;8.40;7.10;;;;;;;19.13;53.75;94285.69;5017545;28;20033;-77
2023/09/09 00:42:38;;;;;;;9.82;7.10;;;;;;;19.02;53.77;94283.94;5018557;28;20127;-79
2023/09/09 00:45:04;;;;;;;8.30;7.05;;;;;;;18.99;54.11;94285.41;5017094;28;20215;-78
2023/09/09 00:47:30;;;;;;;10.55;6.85;;;;;;;18.94;54.14;94266.03;5018149;28;20036;-78
2023/09/09 00:49:55;;;;;;;8.00;6.85;;;;;;;18.68;55.14;94278.19;4999634;28;20037;-77
2023/09/09 00:52:21;;;;;;;9.10;7.57;;;;;;;18.79;54.95;94287.31;5016780;28;20050;-77
2023/09/09 00:54:48;;;;;;;7.63;6.90;;;;;;;18.94;54.47;94283.00;5014848;28;20132;-77
2023/09/09 00:57:16;;;;;;;9.90;8.10;;;;;;;18.87;54.51;94278.22;5016968;28;20563;-77
2023/09/09 00:59:42;;;;;;;11.38;7.30;;;;;;;18.73;54.69;94253.69;5018694;28;20508;-77
2023/09/09 01:02:08;;;;;;;9.18;7.30;;;;;;;18.86;54.32;94271.31;5016358;28;20014;-77
2023/09/09 01:04:33;;;;;;;9.32;7.35;;;;;;;18.77;54.24;94251.84;5016458;28;20076;-78
2023/09/09 01:07:02;;;;;;;9.98;7.57;;;;;;;18.96;54.00;94271.88;4999353;28;20041;-76
2023/09/09 01:09:30;;;;;;;10.13;7.30;;;;;;;18.92;53.91;94262.94;5014919;28;20159;-75
2023/09/09 01:11:56;;;;;;;10.40;7.68;;;;;;;18.87;54.02;94267.47;5017514;28;20063;-76
2023/09/09 01:14:21;;;;;;;10.43;8.13;;;;;;;18.81;54.31;94260.81;5015680;28;20040;-76
2023/09/09 01:16:50;;;;;;;8.88;8.05;;;;;;;18.73;54.29;94255.59;4999605;28;20047;-77
2023/09/09 01:19:18;;;;;;;13.65;8.45;;;;;;;18.65;54.42;94251.97;4992632;28;20402;-77
2023/09/09 01:21:46;;;;;;;10.18;9.02;;;;;;;18.62;54.60;94249.97;5017413;28;20032;-77
2023/09/09 01:24:15;;;;;;;11.60;8.88;;;;;;;18.70;54.23;94257.09;5017444;28;20541;-75
2023/09/09 01:26:44;;;;;;;15.68;9.30;;;;;;;18.53;54.76;94245.94;5014340;28;20754;-77
2023/09/09 01:29:09;;;;;;;12.02;8.95;;;;;;;18.67;54.02;94268.56;5014250;28;20029;-76
2023/09/09 01:31:35;;;;;;;10.27;8.48;;;;;;;18.64;54.16;94266.56;5013077;28;20083;-75
2023/09/09 01:34:00;;;;;;;13.60;8.75;;;;;;;18.57;54.01;94247.56;5012220;28;20060;-77
2023/09/09 01:36:26;;;;;;;8.88;7.93;;;;;;;18.60;53.92;94254.94;5015960;28;21066;-76
2023/09/09 01:38:51;;;;;;;8.88;7.97;;;;;;;18.55;53.91;94244.44;5017017;28;20040;-77
2023/09/09 01:41:16;;;;;;;9.27;8.30;;;;;;;18.46;54.24;94246.56;5016407;28;20026;-75
2023/09/09 01:43:42;;;;;;;10.25;8.18;;;;;;;18.35;54.52;94250.91;5017702;28;20017;-77
2023/09/09 01:46:07;;;;;;;13.35;8.60;;;;;;;18.14;55.10;94243.13;5016744;28;20565;-75
2023/09/09 01:48:33;;;;;;;9.65;8.68;;;;;;;18.19;55.23;94255.53;5016555;28;20342;-77
2023/09/09 01:50:58;;;;;;;11.65;9.80;;;;;;;18.01;55.54;94229.00;5015926;28;20609;-78
2023/09/09 01:53:24;;;;;;;9.85;8.77;;;;;;;17.99;55.65;94252.78;5014992;28;20787;-77
2023/09/09 01:55:49;;;;;;;15.27;9.65;;;;;;;17.99;55.27;94250.09;5015977;28;20033;-77
2023/09/09 01:58:15;;;;;;;11.57;8.18;;;;;;;18.15;54.93;94249.31;5015005;28;20029;-76
2023/09/09 02:00:41;;;;;;;11.00;9.35;;;;;;;17.94;55.33;94250.38;5017414;28;20036;-76
2023/09/09 02:03:06;;;;;;;15.90;8.55;;;;;;;17.85;55.89;94247.03;5002705;28;20045;-77
2023/09/09 02:05:32;;;;;;;11.63;9.57;;;;;;;17.89;56.57;94252.53;4997974;28;20573;-77
2023/09/09 02:07:57;;;;;;;12.18;8.90;;;;;;;17.84;56.75;94253.56;5017504;28;20550;-79
2023/09/09 02:10:23;;;;;;;10.90;8.93;;;;;;;17.91;56.36;94256.44;4997504;28;20729;-78
2023/09/09 02:12:48;;;;;;;11.15;9.30;;;;;;;17.93;56.43;94262.28;5017665;28;20017;-77
2023/09/09 02:15:14;;;;;;;12.23;9.45;;;;;;;17.91;56.06;94266.41;5016598;28;20046;-76
2023/09/09 02:17:39;;;;;;;12.82;9.30;;;;;;;17.87;56.03;94260.16;5015021;28;20048;-76
2023/09/09 02:20:06;;;;;;;10.82;9.30;;;;;;;17.80;55.99;94251.91;5011796;28;20040;-77
2023/09/09 02:22:31;;;;;;;10.90;9.80;;;;;;;17.68;56.17;94249.31;5016723;28;20179;-76
2023/09/09 02:24:57;;;;;;;11.90;8.73;;;;;;;17.66;56.44;94246.97;5016731;28;20034;-77
2023/09/09 02:27:23;;;;;;;10.45;9.35;;;;;;;17.62;56.24;94246.09;4998513;28;20021;-77
2023/09/09 02:29:49;;;;;;;10.13;8.90;;;;;;;17.51;56.53;94261.19;5015952;28;20068;-78
2023/09/09 02:32:16;;;;;;;11.13;8.32;;;;;;;17.51;56.68;94251.22;5015056;28;20461;-77
2023/09/09 02:34:41;;;;;;;13.77;8.43;;;;;;;17.60;56.47;94251.03;5014038;28;20041;-78
2023/09/09 02:37:17;;;;;;;16.17;8.43;;;;;;;17.66;56.18;94257.72;5017216;28;20041;-79
2023/09/09 02:39:47;;;;;;;11.77;9.02;;;;;;;17.67;56.17;94253.91;5000521;28;20475;-78
2023/09/09 02:42:18;;;;;;;13.07;8.15;;;;;;;17.67;55.84;94258.50;5016197;28;20029;-77
2023/09/09 02:44:43;;;;;;;15.52;9.65;;;;;;;17.50;56.13;94248.88;5017156;28;20587;-78
2023/09/09 02:47:10;;;;;;;9.20;8.30;;;;;;;17.60;55.83;94264.47;5013978;28;20041;-77
2023/09/09 02:49:36;;;;;;;10.32;7.97;;;;;;;17.43;56.06;94246.00;5015663;28;20521;-77
2023/09/09 02:52:02;;;;;;;14.23;8.73;;;;;;;17.48;56.03;94248.44;5016069;28;20034;-77
2023/09/09 02:54:28;;;;;;;11.85;7.75;;;;;;;17.50;55.72;94265.78;5018427;28;20106;-79
2023/09/09 02:56:53;;;;;;;10.25;8.13;;;;;;;17.49;55.97;94266.13;5015541;28;20589;-77
2023/09/09 02:59:19;;;;;;;11.00;7.75;;;;;;;17.29;55.92;94243.72;4999333;28;20065;-77
2023/09/09 03:01:44;;;;;;;14.38;8.43;;;;;;;17.18;56.67;94251.50;5013727;28;20104;-78
2023/09/09 03:04:12;;;;;;;9.75;8.85;;;;;;;17.14;57.39;94247.94;5014717;28;20456;-77
2023/09/09 03:06:37;;;;;;;13.13;10.13;;;;;;;17.15;57.26;94238.78;5015905;28;21662;-79
2023/09/09 03:09:03;;;;;;;9.82;8.63;;;;;;;17.22;57.31;94251.59;5014918;28;20071;-78
2023/09/09 03:11:29;;;;;;;10.85;9.00;;;;;;;17.22;57.43;94256.19;5015657;28;20481;-78
2023/09/09 03:13:54;;;;;;;10.18;8.73;;;;;;;17.25;57.13;94250.16;5014649;28;20115;-78
2023/09/09 03:16:20;;;;;;;10.80;9.02;;;;;;;17.32;56.83;94253.00;4998461;28;20036;-77
2023/09/09 03:18:45;;;;;;;12.48;8.30;;;;;;;17.17;56.89;94249.94;5015318;28;20056;-78
2023/09/09 03:21:10;;;;;;;10.43;8.23;;;;;;;17.16;57.57;94255.66;5016755;28;20030;-76
2023/09/09 03:23:36;;;;;;;10.43;9.30;;;;;;;17.16;57.19;94251.06;4999382;28;21227;-78
2023/09/09 03:26:01;;;;;;;12.13;9.40;;;;;;;17.14;57.07;94247.94;5016652;28;20063;-77
2023/09/09 03:28:26;;;;;;;12.75;8.35;;;;;;;17.02;56.98;94245.28;4997834;28;20976;-78
2023/09/09 03:30:56;;;;;;;10.68;9.35;;;;;;;17.06;57.00;94256.16;5015961;28;20022;-78
2023/09/09 03:33:22;;;;;;;11.80;8.95;;;;;;;16.94;57.25;94248.91;5014560;28;20444;-77
2023/09/09 03:35:47;;;;;;;9.02;8.10;;;;;;;16.99;57.23;94256.72;4998159;28;20045;-77
2023/09/09 03:38:13;;;;;;;14.15;9.20;;;;;;;16.99;57.35;94251.34;5015223;28;20077;-77
2023/09/09 03:40:38;;;;;;;11.80;9.70;;;;;;;17.09;57.20;94264.28;5013916;28;20041;-78
2023/09/09 03:43:03;;;;;;;12.60;9.43;;;;;;;17.08;57.63;94265.41;4997632;28;20056;-77
2023/09/09 03:45:30;;;;;;;11.57;8.95;;;;;;;17.06;57.95;94246.16;5014585;28;20034;-77
2023/09/09 03:47:56;;;;;;;11.23;9.07;;;;;;;17.10;57.62;94244.38;5015066;28;20499;-79
2023/09/09 03:50:21;;;;;;;10.13;8.57;;;;;;;17.06;57.62;94246.16;5013633;28;20052;-78
2023/09/09 03:52:47;;;;;;;11.45;8.60;;;;;;;17.05;57.49;94249.19;5015016;28;20033;-78
2023/09/09 03:55:12;;;;;;;11.52;8.95;;;;;;;17.06;57.65;94262.28;4997939;28;20048;-76
2023/09/09 03:57:37;;;;;;;11.35;9.48;;;;;;;16.95;57.52;94253.16;5018311;28;20025;-79
2023/09/09 04:00:04;;;;;;;11.65;8.63;;;;;;;16.98;57.29;94257.84;5000224;28;20505;-78
2023/09/09 04:02:30;;;;;;;11.55;9.45;;;;;;;16.90;57.04;94253.41;5018246;28;20532;-77
2023/09/09 04:04:55;;;;;;;9.82;8.85;;;;;;;16.81;57.40;94250.09;5020272;28;20048;-77
2023/09/09 04:07:20;;;;;;;10.75;9.10;;;;;;;16.86;57.56;94267.88;5014877;28;20505;-78
2023/09/09 04:09:46;;;;;;;10.75;9.15;;;;;;;16.82;57.48;94273.13;5019473;28;20021;-76
2023/09/09 04:12:11;;;;;;;13.30;9.88;;;;;;;16.83;57.77;94265.84;5015541;28;20029;-78
2023/09/09 04:14:40;;;;;;;13.25;9.57;;;;;;;16.85;57.86;94259.00;5001700;28;20038;-77
2023/09/09 04:17:06;;;;;;;13.07;9.55;;;;;;;16.82;57.92;94254.31;5017420;28;20107;-78
2023/09/09 04:19:32;;;;;;;11.75;9.52;;;;;;;16.82;58.10;94265.06;5018204;28;20144;-76
2023/09/09 04:21:57;;;;;;;13.88;8.88;;;;;;;16.76;58.01;94247.63;5018559;28;20464;-78
2023/09/09 04:24:22;;;;;;;13.30;8.77;;;;;;;16.86;58.09;94268.66;5018503;28;20028;-77
2023/09/09 04:26:48;;;;;;;10.68;9.43;;;;;;;16.81;58.11;94254.66;4999926;28;20038;-77
2023/09/09 04:29:14;;;;;;;11.88;9.73;;;;;;;16.90;58.08;94261.47;5016367;28;20474;-77
2023/09/09 04:31:39;;;;;;;10.38;8.68;;;;;;;16.74;58.18;94233.75;5018140;28;20739;-78
2023/09/09 04:34:05;;;;;;;10.77;9.35;;;;;;;16.88;58.12;94254.84;4999624;28;20036;-77
2023/09/09 04:36:30;;;;;;;14.10;9.18;;;;;;;16.86;58.16;94263.28;5017096;28;20084;-78
2023/09/09 04:38:55;;;;;;;11.23;9.55;;;;;;;16.67;58.54;94237.00;5016337;28;20096;-77
2023/09/09 04:41:21;;;;;;;9.43;8.40;;;;;;;16.82;58.45;94257.00;5018357;28;20037;-78
2023/09/09 04:43:46;;;;;;;11.52;8.73;;;;;;;16.91;58.46;94254.19;5018642;28;20037;-77
2023/09/09 04:46:12;;;;;;;12.10;10.05;;;;;;;16.94;59.51;94256.97;5016240;28;20037;-77
2023/09/09 04:48:37;;;;;;;17.50;10.07;;;;;;;16.97;60.10;94256.28;5017004;28;20029;-77
2023/09/09 04:51:03;;;;;;;11.45;9.30;;;;;;;17.06;60.22;94256.16;5016926;28;21052;-76
2023/09/09 04:53:28;;;;;;;11.77;9.38;;;;;;;17.13;60.61;94262.50;4998455;28;20064;-77
2023/09/09 04:55:54;;;;;;;19.23;9.85;;;;;;;17.16;60.45;94267.19;4998288;28;20111;-78
2023/09/09 04:58:22;;;;;;;11.20;9.10;;;;;;;17.28;60.43;94263.66;5017204;28;21062;-77
2023/09/09 05:00:47;;;;;;;12.90;9.38;;;;;;;17.23;60.57;94249.69;5004273;28;20018;-79
2023/09/09 05:03:12;;;;;;;14.35;9.18;;;;;;;17.27;60.77;94261.31;5015016;28;20040;-77
2023/09/09 05:05:38;;;;;;;14.25;9.80;;;;;;;17.38;60.67;94265.84;5018235;28;20048;-79
2023/09/09 05:08:04;;;;;;;10.00;8.55;;;;;;;17.42;60.33;94265.94;5015213;28;20044;-77
2023/09/09 05:10:29;;;;;;;11.07;8.20;;;;;;;17.45;60.42;94254.50;5018130;28;20683;-78
2023/09/09 05:12:55;;;;;;;9.93;8.27;;;;;;;17.41;60.41;94248.25;5016067;28;20032;-76
2023/09/09 05:15:21;;;;;;;17.45;8.25;;;;;;;17.53;60.54;94258.94;5018882;28;20106;-78
2023/09/09 05:17:46;;;;;;;11.73;7.78;;;;;;;17.50;60.89;94259.63;4997838;28;20048;-78
2023/09/09 05:20:12;;;;;;;11.23;8.65;;;;;;;17.59;60.65;94262.94;4999291;28;20034;-78
2023/09/09 05:22:37;;;;;;;11.10;8.95;;;;;;;17.60;60.61;94249.13;5016021;28;20041;-76
2023/09/09 05:25:03;;;;;;;11.90;9.90;;;;;;;17.58;60.70;94245.25;5014297;28;20123;-77
2023/09/09 05:27:29;;;;;;;12.25;9.88;;;;;;;17.81;60.08;94265.00;5018177;28;20025;-76
2023/09/09 05:29:54;;;;;;;16.98;9.75;;;;;;;17.70;59.95;94242.44;4997732;28;20120;-77
2023/09/09 05:32:19;;;;;;;15.75;11.07;;;;;;;17.83;59.26;94249.31;5018116;28;20037;-79
2023/09/09 05:34:45;;;;;;;16.10;11.52;;;;;;;17.82;59.49;94253.13;5014363;28;20033;-78
2023/09/09 05:37:10;;;;;;;13.50;11.25;;;;;;;17.90;59.43;94252.16;5018790;28;20033;-77
2023/09/09 05:39:36;;;;;;;16.67;11.43;;;;;;;18.02;59.25;94264.78;5014633;28;20021;-79
2023/09/09 05:42:02;;;;;;;17.50;12.88;;;;;;;17.98;59.44;94261.22;4995846;28;20528;-77
2023/09/09 05:44:28;;;;;;;14.30;11.98;;;;;;;18.13;58.72;94259.66;4993028;28;20045;-77
2023/09/09 05:46:54;;;;;;;17.65;12.27;;;;;;;17.73;58.99;94225.63;5018661;28;20026;-77
2023/09/09 05:49:19;;;;;;;20.83;14.32;;;;;;;17.96;59.86;94256.19;5015897;28;20037;-77
2023/09/09 05:51:45;;;;;;;15.55;11.98;;;;;;;18.01;59.53;94265.91;5018105;28;20029;-79
2023/09/09 05:54:10;;;;;;;20.88;13.30;;;;;;;17.90;60.15;94262.16;4996016;28;20526;-77
2023/09/09 05:56:36;;;;;;;17.98;13.70;;;;;;;17.99;59.85;94266.25;5018245;28;20132;-78
2023/09/09 05:59:07;;;;;;;15.68;12.73;;;;;;;18.09;59.80;94277.63;5013835;28;20568;-77
2023/09/09 06:01:32;;;;;;;20.52;13.73;;;;;;;18.00;60.19;94267.81;4997823;28;20033;-77
2023/09/09 06:03:57;;;;;;;18.42;13.90;;;;;;;17.74;61.15;94275.63;5015367;28;20525;-78
2023/09/09 06:06:23;;;;;;;18.50;13.25;;;;;;;17.88;60.32;94243.69;5017181;28;20037;-77
2023/09/09 06:08:48;;;;;;;18.52;14.02;;;;;;;17.96;60.73;94275.03;4998275;28;20033;-78
2023/09/09 06:11:14;;;;;;;17.85;14.15;;;;;;;18.17;58.24;94260.50;4997514;28;20040;-77
2023/09/09 06:13:39;;;;;;;17.98;13.23;;;;;;;18.19;58.31;94269.78;5017325;28;20067;-79
2023/09/09 06:16:05;;;;;;;21.90;13.85;;;;;;;18.31;57.80;94271.59;5015628;28;20056;-77
2023/09/09 06:18:30;;;;;;;15.70;12.60;;;;;;;18.38;58.02;94272.53;5016525;28;20021;-77
2023/09/09 06:20:57;;;;;;;17.80;13.32;;;;;;;18.33;59.27;94274.75;5016198;28;20663;-78
2023/09/09 06:23:23;;;;;;;20.02;13.68;;;;;;;18.33;59.19;94272.03;5016220;28;20283;-77
2023/09/09 06:25:50;;;;;;;18.85;13.60;;;;;;;18.38;59.42;94272.53;4999355;28;20524;-77
2023/09/09 06:28:16;;;;;;;18.05;14.60;;;;;;;18.54;58.47;94275.19;4996412;28;20084;-77
2023/09/09 06:30:43;;;;;;;15.27;13.70;;;;;;;18.56;59.27;94277.53;5016946;28;20108;-78
2023/09/09 06:33:08;;;;;;;19.10;15.85;;;;;;;18.44;60.00;94276.53;5014485;28;20094;-77
2023/09/09 06:35:33;;;;;;;17.67;15.05;;;;;;;18.46;60.31;94276.97;5013524;28;20092;-78
2023/09/09 06:37:59;;;;;;;17.55;13.80;;;;;;;18.83;58.15;94266.59;5014780;28;20036;-77
2023/09/09 06:40:24;;;;;;;19.55;13.65;;;;;;;18.99;58.15;94260.38;4995689;28;20045;-79
2023/09/09 06:42:50;;;;;;;16.30;13.13;;;;;;;19.10;58.25;94270.25;5015278;28;20036;-79
2023/09/09 06:45:15;;;;;;;17.60;13.48;;;;;;;19.35;56.44;94281.50;5014480;28;20112;-78
2023/09/09 06:47:41;;;;;;;15.02;11.10;;;;;;;19.35;56.72;94264.53;4996210;28;20033;-78
2023/09/09 06:50:07;;;;;;;15.48;11.60;;;;;;;19.63;55.89;94276.66;5015124;28;20045;-77
2023/09/09 06:52:32;;;;;;;18.83;12.40;;;;;;;19.39;56.28;94265.38;5016082;28;20041;-78
2023/09/09 06:54:58;;;;;;;19.70;12.73;;;;;;;19.30;56.61;94269.09;4995907;28;20083;-77
2023/09/09 06:57:23;;;;;;;16.58;13.57;;;;;;;19.46;56.14;94279.78;5018090;28;20033;-80
2023/09/09 06:59:48;;;;;;;16.85;12.88;;;;;;;19.57;56.37;94283.47;5013166;28;20037;-78
2023/09/09 07:02:14;;;;;;;22.02;12.85;;;;;;;19.71;55.55;94262.13;5017277;28;20043;-76
2023/09/09 07:04:39;;;;;;;17.17;12.20;;;;;;;20.01;54.21;94280.34;5013364;28;20501;-78
2023/09/09 07:07:04;;;;;;;16.20;11.02;;;;;;;20.32;52.69;94280.13;5016481;28;20025;-79
2023/09/09 07:09:30;;;;;;;11.98;10.70;;;;;;;20.39;53.29;94279.44;5015467;28;20083;-78
2023/09/09 07:11:58;;;;;;;15.05;11.25;;;;;;;20.27;53.79;94282.34;5015141;28;20053;-77
2023/09/09 07:14:23;;;;;;;19.17;10.93;;;;;;;20.27;53.61;94275.03;5015300;28;20791;-77
2023/09/09 07:16:49;;;;;;;14.05;11.07;;;;;;;20.38;53.90;94273.28;4997074;28;20132;-79
2023/09/09 07:19:14;;;;;;;12.32;10.95;;;;;;;20.33;52.62;94281.69;5013835;28;20489;-78
2023/09/09 07:21:39;;;;;;;16.65;10.80;;;;;;;20.53;52.27;94269.59;5015805;28;20025;-77
2023/09/09 07:24:05;;;;;;;9.40;8.40;;;;;;;20.46;50.72;94279.53;5015562;28;20045;-78
2023/09/09 07:26:31;;;;;;;14.30;8.65;;;;;;;20.59;49.95;94276.25;5015186;28;20036;-78
2023/09/09 07:28:57;;;;;;;11.02;7.07;;;;;;;20.45;47.99;94284.16;4995925;28;20061;-79
2023/09/09 07:31:23;;;;;;;10.35;7.43;;;;;;;20.50;47.76;94274.97;5013766;28;20506;-79
2023/09/09 07:33:48;;;;;;;10.40;7.22;;;;;;;20.73;47.59;94269.50;5013937;28;20025;-77
2023/09/09 07:36:13;;;;;;;11.57;5.82;;;;;;;20.81;45.19;94263.03;4995521;28;20033;-78
2023/09/09 07:38:39;;;;;;;12.55;6.32;;;;;;;20.81;45.63;94274.63;5015531;28;20486;-80
2023/09/09 07:41:04;;;;;;;11.48;5.75;;;;;;;20.75;44.94;94276.09;5015451;28;20044;-78
2023/09/09 07:43:30;;;;;;;6.07;4.65;;;;;;;20.50;44.22;94270.34;5016265;28;20076;-77
2023/09/09 07:45:55;;;;;;;10.63;5.95;;;;;;;20.68;43.87;94277.94;5013468;28;20018;-76
2023/09/09 07:48:21;;;;;;;10.32;4.93;;;;;;;20.79;44.28;94270.72;5015368;28;20492;-78
2023/09/09 07:50:50;;;;;;;10.52;4.63;;;;;;;20.85;43.67;94263.84;4995771;28;20077;-76
2023/09/09 07:53:16;;;;;;;5.80;4.72;;;;;;;20.94;43.48;94277.91;4998892;28;20084;-78
2023/09/09 07:55:41;;;;;;;12.23;4.65;;;;;;;21.09;42.96;94263.41;5013748;28;20041;-77
2023/09/09 07:58:07;;;;;;;7.50;3.03;;;;;;;20.98;38.60;94276.03;5015752;28;20025;-77
2023/09/09 08:00:36;;;;;;;4.78;2.92;;;;;;;20.79;38.25;94268.03;5013935;28;20029;-76
2023/09/09 08:03:02;;;;;;;5.78;3.40;;;;;;;20.80;38.58;94266.88;5015111;28;21000;-77
2023/09/09 08:05:28;;;;;;;7.90;3.92;;;;;;;20.84;39.67;94267.69;5014476;28;20042;-78
2023/09/09 08:07:53;;;;;;;5.63;3.17;;;;;;;20.69;39.41;94266.75;5012361;28;20033;-77
2023/09/09 08:10:20;;;;;;;3.55;2.58;;;;;;;20.83;38.48;94276.94;5004895;28;20565;-78
2023/09/09 08:12:45;;;;;;;4.72;3.00;;;;;;;20.82;37.88;94273.50;4992762;28;20512;-78
2023/09/09 08:15:11;;;;;;;3.97;3.05;;;;;;;20.53;38.38;94241.84;4988040;28;20135;-78
2023/09/09 08:17:37;;;;;;;8.23;3.92;;;;;;;21.13;38.74;94274.28;5008126;28;20041;-76
2023/09/09 08:20:07;;;;;;;6.97;3.58;;;;;;;21.24;38.75;94259.72;5013365;28;20039;-77
2023/09/09 08:22:33;;;;;;;5.53;3.33;;;;;;;21.32;38.13;94269.47;5013302;28;20050;-77
2023/09/09 08:25:00;;;;;;;7.95;3.17;;;;;;;21.18;37.16;94263.91;5012735;28;20913;-77
2023/09/09 08:27:25;;;;;;;5.50;3.63;;;;;;;21.14;37.16;94275.81;4995586;28;20025;-77
2023/09/09 08:29:50;;;;;;;4.85;3.35;;;;;;;21.37;36.82;94274.56;5014049;28;20054;-77
2023/09/09 08:32:16;;;;;;;6.00;3.33;;;;;;;21.39;36.03;94266.84;5012766;28;20132;-77
2023/09/09 08:34:41;;;;;;;6.93;3.45;;;;;;;21.25;36.25;94258.59;5015075;28;20040;-78
2023/09/09 08:37:08;;;;;;;5.35;3.53;;;;;;;21.13;36.94;94253.41;4996456;28;20037;-77
2023/09/09 08:39:33;;;;;;;4.55;2.58;;;;;;;21.46;36.69;94256.09;5011732;28;20022;-78
2023/09/09 08:42:17;;;;;;;5.45;3.33;;;;;;;21.39;36.55;94247.91;5017060;28;20082;-77
2023/09/09 08:45:06;;;;;;;3.83;2.88;;;;;;;21.54;35.70;94250.75;5018922;28;20037;-78
2023/09/09 08:47:36;;;;;;;5.22;2.85;;;;;;;21.65;35.54;94246.28;4998438;28;20389;-79
2023/09/09 08:50:04;;;;;;;7.70;2.60;;;;;;;21.77;34.28;94256.81;4992684;28;20041;-78
2023/09/09 08:52:29;;;;;;;2.70;2.30;;;;;;;21.86;34.65;94246.44;5013875;28;20497;-78
2023/09/09 08:54:56;;;;;;;5.88;2.75;;;;;;;21.88;33.61;94250.34;5014978;28;20049;-78
2023/09/09 08:57:25;;;;;;;4.60;2.53;;;;;;;21.68;34.26;94240.88;5017320;28;20032;-78
2023/09/09 08:59:53;;;;;;;3.33;2.28;;;;;;;21.76;34.28;94253.31;5012278;28;20128;-76
2023/09/09 09:02:18;;;;;;;3.90;2.20;;;;;;;21.97;34.88;94241.91;5017796;28;20120;-78
2023/09/09 09:04:44;;;;;;;5.93;2.08;;;;;;;21.81;33.37;94242.16;5015285;28;20033;-79
2023/09/09 09:07:12;;;;;;;2.45;1.90;;;;;;;21.74;32.98;94244.03;4999471;28;20517;-77
2023/09/09 09:09:37;;;;;;;5.28;2.05;;;;;;;21.76;33.31;94217.34;4999039;28;20116;-79
2023/09/09 09:12:03;;;;;;;3.97;2.20;;;;;;;21.78;32.55;94240.19;5015554;28;20047;-77
2023/09/09 09:14:29;;;;;;;2.58;2.00;;;;;;;21.72;32.58;94240.91;5011945;28;20099;-78
2023/09/09 09:16:55;;;;;;;4.03;2.28;;;;;;;21.84;32.92;94246.06;5018322;28;20044;-76
2023/09/09 09:19:30;;;;;;;3.67;2.30;;;;;;;21.81;31.88;94227.84;5014037;28;20036;-77
2023/09/09 09:21:57;;;;;;;4.93;3.30;;;;;;;21.89;32.15;94240.28;4997348;28;20017;-78
2023/09/09 09:24:27;;;;;;;5.95;2.25;;;;;;;21.57;31.83;94225.69;5018376;28;20961;-77
2023/09/09 09:26:53;;;;;;;2.85;2.40;;;;;;;21.94;32.40;94231.03;5017435;28;20068;-79
2023/09/09 09:29:19;;;;;;;5.47;2.15;;;;;;;22.17;32.25;94237.81;4999388;28;20041;-77
2023/09/09 09:31:53;;;;;;;3.15;2.00;;;;;;;22.12;30.42;94238.16;5014923;28;20052;-77
2023/09/09 09:34:33;;;;;;;5.75;2.05;;;;;;;22.25;31.78;94247.56;5015913;28;20083;-77
2023/09/09 09:36:58;;;;;;;4.15;1.67;;;;;;;22.08;30.58;94240.06;5015815;28;20819;-77
2023/09/09 09:39:23;;;;;;;2.28;2.08;;;;;;;22.26;31.79;94234.78;5017090;28;20025;-77
2023/09/09 09:41:49;;;;;;;3.70;2.38;;;;;;;22.27;31.09;94222.81;5015494;28;20036;-78
2023/09/09 09:44:20;;;;;;;5.57;2.40;;;;;;;22.07;30.82;94206.00;5012668;28;20053;-79
2023/09/09 09:47:05;;;;;;;4.68;1.80;;;;;;;22.03;29.26;94224.16;5015985;28;20766;-78
2023/09/09 09:49:40;;;;;;;5.53;1.65;;;;;;;22.09;30.08;94225.38;4990168;28;20080;-77
2023/09/09 09:52:06;;;;;;;2.85;2.35;;;;;;;22.18;31.46;94214.97;5015068;28;20033;-77
2023/09/09 09:54:33;;;;;;;2.30;2.05;;;;;;;22.48;30.70;94214.81;5017744;28;20124;-79
2023/09/09 09:57:03;;;;;;;6.00;2.15;;;;;;;22.40;31.01;94198.88;5015312;28;20160;-77
2023/09/09 09:59:31;;;;;;;3.28;1.77;;;;;;;22.60;30.08;94211.00;5018341;28;20034;-78
2023/09/09 10:01:58;;;;;;;2.28;1.92;;;;;;;22.57;30.15;94211.75;5013665;28;20665;-77
2023/09/09 10:04:25;;;;;;;2.30;2.05;;;;;;;22.29;28.87;94177.91;5015784;28;20033;-78
2023/09/09 10:06:56;;;;;;;3.55;2.05;;;;;;;22.48;29.36;94189.66;5016491;28;20124;-77
2023/09/09 10:09:37;;;;;;;4.07;1.77;;;;;;;22.67;29.37;94214.53;5016562;28;20021;-78
2023/09/09 10:12:10;;;;;;;3.50;2.10;;;;;;;22.14;28.40;94211.47;5016634;28;20037;-77
2023/09/09 10:14:37;;;;;;;4.38;1.98;;;;;;;22.29;28.82;94205.00;4999383;28;20528;-78
2023/09/09 10:17:07;;;;;;;3.17;1.75;;;;;;;22.60;28.43;94178.47;5015783;28;20103;-76
2023/09/09 10:19:35;;;;;;;4.90;2.50;;;;;;;22.60;29.95;94168.41;4997294;28;20056;-76
2023/09/09 10:22:02;;;;;;;3.90;2.05;;;;;;;22.39;29.51;94191.91;5013030;28;20037;-77
2023/09/09 10:24:29;;;;;;;3.10;1.80;;;;;;;22.44;29.52;94178.00;5016580;28;20033;-78
2023/09/09 10:26:56;;;;;;;3.20;2.13;;;;;;;22.49;29.72;94183.03;5017429;28;20030;-77
2023/09/09 10:29:22;;;;;;;4.15;1.90;;;;;;;22.50;29.71;94190.03;5015778;28;20160;-76
2023/09/09 10:31:49;;;;;;;2.92;1.70;;;;;;;22.46;30.08;94175.69;5013094;28;20501;-78
2023/09/09 10:34:17;;;;;;;7.38;2.50;;;;;;;22.74;30.61;94181.22;5013370;28;20045;-78
2023/09/09 10:36:44;;;;;;;5.13;2.00;;;;;;;22.85;30.24;94168.50;5009882;28;20033;-79
2023/09/09 10:39:13;;;;;;;3.63;1.95;;;;;;;22.63;28.04;94169.59;5007761;28;20046;-77
2023/09/09 10:41:40;;;;;;;4.97;1.80;;;;;;;22.75;28.12;94147.53;5008805;28;21056;-79
2023/09/09 10:44:05;;;;;;;4.10;1.88;;;;;;;22.84;28.57;94164.22;5006446;28;20041;-77
2023/09/09 10:46:33;;;;;;;5.45;2.72;;;;;;;22.94;30.32;94152.66;4991158;28;20539;-76
2023/09/09 10:49:01;;;;;;;2.60;1.90;;;;;;;22.80;29.51;94152.59;5008465;28;20067;-77
2023/09/09 10:51:28;;;;;;;4.28;1.83;;;;;;;22.77;29.36;94166.94;5011922;28;20037;-76
2023/09/09 10:54:07;;;;;;;2.50;1.60;;;;;;;23.04;30.75;94141.06;4995990;28;20081;-79
2023/09/09 10:56:33;;;;;;;2.90;1.50;;;;;;;22.89;29.59;94155.75;5014913;28;20044;-79
2023/09/09 10:58:58;;;;;;;2.22;1.80;;;;;;;22.99;29.03;94152.31;4997296;28;20631;-77
2023/09/09 11:01:25;;;;;;;4.75;1.52;;;;;;;23.06;29.04;94149.63;5015334;28;20497;-76
2023/09/09 11:03:51;;;;;;;4.63;2.60;;;;;;;22.96;28.25;94144.16;5014620;28;20167;-77
2023/09/09 11:06:33;;;;;;;6.57;1.55;;;;;;;22.77;28.02;94158.78;5016691;28;20144;-77
2023/09/09 11:09:01;;;;;;;2.17;1.30;;;;;;;22.90;27.73;94157.31;5013739;28;20045;-76
2023/09/09 11:11:31;;;;;;;3.08;1.63;;;;;;;22.94;29.26;94136.41;5016850;28;20047;-78
2023/09/09 11:14:07;;;;;;;3.90;1.70;;;;;;;23.23;27.73;94141.88;5012877;28;20042;-76
2023/09/09 11:16:36;;;;;;;2.10;1.30;;;;;;;23.16;27.18;94153.50;5007775;28;20037;-77
2023/09/09 11:19:06;;;;;;;4.15;1.65;;;;;;;23.02;26.74;94148.06;5004206;28;20033;-78
2023/09/09 11:21:34;;;;;;;3.92;1.63;;;;;;;22.97;26.77;94140.28;5007253;28;20029;-78
2023/09/09 11:24:00;;;;;;;3.70;1.65;;;;;;;23.00;27.20;94131.38;5007530;28;20537;-78